createdAt,value
2024-05-09T00:09:36.198Z,6.30
2024-05-09T00:19:36.289Z,5.80
2024-05-09T00:29:36.256Z,9.70
2024-05-09T00:39:36.215Z,13.10
2024-05-09T00:49:36.302Z,14.10
2024-05-09T00:59:36.299Z,11.80
2024-05-09T01:09:36.232Z,13.30
2024-05-09T01:19:36.549Z,14.50
2024-05-09T01:29:36.274Z,14.70
2024-05-09T01:39:36.254Z,15.80
2024-05-09T01:49:36.343Z,14.80
2024-05-09T01:59:36.300Z,16.70
2024-05-09T02:09:36.241Z,15.20
2024-05-09T02:19:36.324Z,17.40
2024-05-09T02:29:36.281Z,18.10
2024-05-09T02:39:36.284Z,17.40
2024-05-09T02:49:36.439Z,16.40
2024-05-09T02:59:36.309Z,16.90
2024-05-09T03:09:36.281Z,15.80
2024-05-09T03:19:36.314Z,16.90
2024-05-09T03:29:36.300Z,15.90
2024-05-09T03:39:36.380Z,17.50
2024-05-09T03:49:36.347Z,17.30
2024-05-09T03:59:36.322Z,16.30
2024-05-09T04:09:36.287Z,16.90
2024-05-09T04:19:36.322Z,16.20
2024-05-09T04:29:36.364Z,17.80
2024-05-09T04:39:36.359Z,16.20
2024-05-09T04:49:36.405Z,15.10
2024-05-09T04:59:36.469Z,10.90
2024-05-09T05:09:36.329Z,5.70
2024-05-09T05:19:36.391Z,3.80
2024-05-09T05:29:36.401Z,3.50
2024-05-09T05:39:36.311Z,3.90
2024-05-09T05:49:36.456Z,4.00
2024-05-09T05:59:36.342Z,4.00
2024-05-09T06:09:36.343Z,3.70
2024-05-09T06:19:36.473Z,3.70
2024-05-09T06:29:36.373Z,3.60
2024-05-09T06:39:36.339Z,4.20
2024-05-09T06:49:36.420Z,4.30
2024-05-09T06:59:36.429Z,4.80
2024-05-09T07:09:36.337Z,4.20
2024-05-09T07:19:37.089Z,4.00
2024-05-09T07:29:38.445Z,3.90
2024-05-09T07:39:36.358Z,3.60
2024-05-09T07:59:38.036Z,3.00
2024-05-09T08:09:38.378Z,3.40
2024-05-09T08:19:36.395Z,2.90
2024-05-09T08:29:36.412Z,3.00
2024-05-09T08:39:36.417Z,2.30
2024-05-09T08:49:37.712Z,2.60
2024-05-09T08:59:36.406Z,2.30
2024-05-09T09:09:36.505Z,2.60
2024-05-09T09:19:36.445Z,2.70
2024-05-09T09:29:36.437Z,2.70
2024-05-09T09:39:36.422Z,2.70
2024-05-09T09:49:36.459Z,2.90
2024-05-09T09:59:36.452Z,3.10
2024-05-09T10:09:36.457Z,3.30
2024-05-09T10:19:36.583Z,3.10
2024-05-09T10:29:36.445Z,2.70
2024-05-09T10:39:36.499Z,2.50
2024-05-09T10:49:36.490Z,2.70
2024-05-09T10:59:36.451Z,2.50
2024-05-09T11:09:36.836Z,2.30
2024-05-09T11:19:36.558Z,2.50
2024-05-09T11:29:36.470Z,3.00
2024-05-09T11:39:36.522Z,3.00
2024-05-09T11:49:36.545Z,2.90
2024-05-09T11:59:36.487Z,2.80
2024-05-09T12:09:36.524Z,2.40
2024-05-09T12:19:36.535Z,2.40
2024-05-09T12:29:38.808Z,2.50
2024-05-09T12:39:36.562Z,3.20
2024-05-09T12:49:36.735Z,3.60
2024-05-09T12:59:36.530Z,3.70
2024-05-09T13:09:36.532Z,3.80
2024-05-09T13:19:36.523Z,4.10
2024-05-09T13:29:36.533Z,5.00
2024-05-09T13:39:36.568Z,4.70
2024-05-09T13:49:37.117Z,5.40
2024-05-09T14:39:36.598Z,3.10
2024-05-09T14:49:36.624Z,3.40
2024-05-09T14:59:36.728Z,2.60
2024-05-09T15:09:36.629Z,2.00
2024-05-09T15:19:37.072Z,1.70
2024-05-09T15:39:36.654Z,1.70
2024-05-09T15:49:36.859Z,2.00
2024-05-09T15:59:36.618Z,1.80
2024-05-09T16:09:40.333Z,2.50
2024-05-09T16:19:36.646Z,1.90
2024-05-09T16:29:36.623Z,2.10
2024-05-09T16:39:36.669Z,2.00
2024-05-09T16:49:36.677Z,2.10
2024-05-09T16:59:36.638Z,2.50
2024-05-09T17:09:36.682Z,2.30
2024-05-09T17:19:36.669Z,2.50
2024-05-09T17:29:36.647Z,2.00
2024-05-09T17:49:36.702Z,2.00
2024-05-09T17:59:36.790Z,1.80
2024-05-09T18:09:36.699Z,2.20
2024-05-09T18:19:36.877Z,4.10
2024-05-09T18:29:36.699Z,2.30
2024-05-09T18:39:36.791Z,2.20
2024-05-09T18:49:36.823Z,1.80
2024-05-09T18:59:36.701Z,1.80
2024-05-09T19:09:36.806Z,1.80
2024-05-09T19:19:37.004Z,1.50
2024-05-09T19:29:36.706Z,1.70
2024-05-09T19:39:36.769Z,1.90
2024-05-09T19:49:36.782Z,1.80
2024-05-09T19:59:36.741Z,1.60
2024-05-09T20:09:36.766Z,1.80
2024-05-09T20:19:36.923Z,2.20
2024-05-09T20:29:36.741Z,3.90
2024-05-09T20:39:36.840Z,6.50
2024-05-09T20:49:36.825Z,7.60
2024-05-09T20:59:36.746Z,10.00
2024-05-09T21:09:36.779Z,11.10
2024-05-09T21:19:36.757Z,12.80
2024-05-09T21:29:36.778Z,13.80
2024-05-09T21:39:36.780Z,14.00
2024-05-09T21:49:36.851Z,14.50
2024-05-09T21:59:36.787Z,14.30
2024-05-09T22:09:36.791Z,14.90
2024-05-09T22:19:36.908Z,13.10
2024-05-09T22:29:36.793Z,14.00
2024-05-09T22:39:36.830Z,13.60
2024-05-09T22:49:36.831Z,14.30
2024-05-09T22:59:36.798Z,14.90
2024-05-09T23:09:36.819Z,14.20
2024-05-09T23:19:36.874Z,13.80
2024-05-09T23:29:36.802Z,13.90
2024-05-09T23:39:36.815Z,15.60
2024-05-09T23:59:36.807Z,13.10
